Aviation Digital Data Service (ADDS)

Output produced by METARs form (2356 UTC 23 November 2014)
found at http://www.aviationweather.gov/adds/metars/
 
KTHV 232253Z AUTO 13004KT 10SM CLR 08/M02 A3006 RMK AO2 SLP184 T00781022
KTHV 232153Z AUTO 15009KT 10SM CLR 09/M03 A3005 RMK AO2 SLP182 T00941028
KTHV 232053Z AUTO 14007KT 10SM CLR 12/M04 A3007 RMK AO2 SLP185 T01171039 56015
KTHV 231953Z AUTO 18006KT 10SM CLR 14/M05 A3008 RMK AO2 SLP188 T01391050
KTHV 231853Z AUTO 15008KT 10SM CLR 15/M04 A3008 RMK AO2 SLP190 T01501039
KTHV 231753Z AUTO 12004KT 10SM CLR 13/M04 A3011 RMK AO2 SLP200 T01331044 10133 21022 58027
KTHV 231653Z AUTO VRB03KT 10SM CLR 11/M05 A3014 RMK AO2 SLP209 T01111050
KTHV 231553Z AUTO 00000KT 10SM CLR 09/M06 A3017 RMK AO2 SLP221 T00891056
KTHV 231453Z AUTO 35004KT 10SM CLR 07/M05 A3019 RMK AO2 SLP230 T00671050 58001
KTHV 231353Z AUTO 00000KT 10SM SCT100 05/M04 A3020 RMK AO2 SLP233 T00501044
KTHV 231253Z AUTO 00000KT 10SM OVC100 02/M04 A3021 RMK AO2 SLP238 T00171044
KTHV 231153Z AUTO 22003KT 10SM FEW075 FEW110 M02/M06 A3020 RMK AO2 SLP233 T10221056 10067 21022 51012
KTHV 231053Z AUTO 23004KT 10SM CLR M01/M06 A3019 RMK AO2 SLP230 T10111061
KTHV 230953Z AUTO 00000KT 10SM FEW080 01/M06 A3017 RMK AO2 SLP222 T00061061
KTHV 230853Z AUTO 00000KT 10SM CLR 06/M07 A3016 RMK AO2 SLP217 T00611072 58007
KTHV 230753Z AUTO 00000KT 10SM OVC100 06/M07 A3017 RMK AO2 SLP222 T00561067
KTHV 230653Z AUTO 00000KT 10SM OVC120 06/M08 A3017 RMK AO2 SLP222 T00611078
KTHV 230553Z AUTO 00000KT 10SM CLR 05/M08 A3018 RMK AO2 SLP226 T00501083 10067 21028 58010
KTHV 230453Z AUTO 21006KT 10SM BKN110 06/M08 A3020 RMK AO2 SLP231 T00611083 400671111
KTHV 230353Z AUTO 22007G15KT 10SM BKN110 06/M08 A3021 RMK AO2 SLP234 T00611083
KTHV 230253Z AUTO 00000KT 10SM BKN110 00/M06 A3021 RMK AO2 SLP237 T00001061 56015
KTHV 230153Z AUTO 00000KT 10SM CLR M03/M07 A3022 RMK AO2 SLP242 T10281067
KTHV 230053Z AUTO 00000KT 10SM SCT110 M01/M07 A3024 RMK AO2 SLP249 T10061067
KTHV 222353Z AUTO 00000KT 10SM CLR M01/M07 A3025 RMK AO2 SLP255 T10061067 10067 21006 58005
KTHV 222253Z AUTO 00000KT 10SM OVC065 04/M07 A3026 RMK AO2 SLP256 T00441067
KTHV 222153Z AUTO 00000KT 10SM OVC065 06/M09 A3027 RMK AO2 SLP259 T00611089
KTHV 222053Z AUTO 23003KT 10SM BKN060 OVC075 06/M09 A3027 RMK AO2 SLP259 T00611094 56022
KTHV 221953Z AUTO 20005KT 10SM BKN049 OVC060 06/M09 A3028 RMK AO2 SLP261 T00611094
KTHV 221853Z AUTO 20007KT 10SM OVC055 06/M11 A3031 RMK AO2 SLP271 T00611106
KTHV 221753Z AUTO 23007KT 10SM OVC080 06/M11 A3034 RMK AO2 SLP280 T00611106 10061 21111 58037
KTHV 221653Z AUTO 22008KT 180V240 10SM CLR 06/M11 A3037 RMK AO2 SLP294 T00561106
KTHV 221553Z AUTO 20008G16KT 150V230 10SM CLR 03/M11 A3041 RMK AO2 SLP307 T00331111
KTHV 221453Z AUTO 18008KT 10SM CLR 02/M10 A3045 RMK AO2 SLP319 T00171100 58007
KTHV 221353Z AUTO 18003KT 10SM CLR M02/M08 A3046 RMK AO2 SLP326 T10221083
KTHV 221253Z AUTO 00000KT 7SM CLR M08/M11 A3048 RMK AO2 SLP331 T10781111